Time;durP1;ratioP1;P1;durP2;ratioP2;P2;SDS_P1;SDS_P2;PMS_P1;PMS_P2;Temp;Humidity;BMP_temperature;BMP_pressure;BME280_temperature;BME280_humidity;BME280_pressure;Samples;Min_cycle;Max_cycle;Signal;HPM_P1;HPM_P2
2024/01/16 00:01:50;;;;;;;5.10;1.83;;;0.90;99.90;;;;;;5001742;28;20490;-83
2024/01/16 00:04:17;;;;;;;7.93;2.00;;;1.00;99.90;;;;;;5001597;28;20042;-83
2024/01/16 00:06:44;;;;;;;4.03;1.70;;;0.90;99.90;;;;;;5026053;28;20081;-81
2024/01/16 00:09:14;;;;;;;6.77;1.60;;;0.90;99.90;;;;;;5017076;28;20054;-81
2024/01/16 00:11:42;;;;;;;5.63;2.13;;;0.80;99.90;;;;;;5017572;28;20050;-82
2024/01/16 00:14:09;;;;;;;5.77;1.60;;;0.70;99.90;;;;;;5017545;28;20041;-82
2024/01/16 00:16:47;;;;;;;4.03;1.30;;;0.70;99.90;;;;;;5017368;28;20084;-82
2024/01/16 00:19:14;;;;;;;4.23;1.00;;;0.60;99.90;;;;;;5030379;28;20045;-82
2024/01/16 00:21:42;;;;;;;4.33;0.80;;;0.60;99.90;;;;;;5009033;28;20054;-78
2024/01/16 00:24:09;;;;;;;4.13;1.13;;;0.50;99.90;;;;;;5029830;28;20140;-77
2024/01/16 00:26:36;;;;;;;3.87;1.07;;;0.50;99.90;;;;;;5016856;28;20060;-77
2024/01/16 00:29:04;;;;;;;3.03;0.77;;;0.50;99.90;;;;;;5033741;28;20053;-78
2024/01/16 00:31:32;;;;;;;2.57;0.77;;;0.50;99.90;;;;;;5033851;28;20083;-77
2024/01/16 00:34:00;;;;;;;3.50;0.70;;;0.50;99.90;;;;;;5027214;28;20124;-77
2024/01/16 00:36:27;;;;;;;4.00;0.60;;;0.50;99.90;;;;;;5030134;28;20040;-76
2024/01/16 00:38:54;;;;;;;3.50;0.50;;;0.50;99.90;;;;;;5033360;28;20115;-76
2024/01/16 00:41:21;;;;;;;2.17;0.73;;;0.60;99.90;;;;;;5014056;28;20482;-76
2024/01/16 00:43:48;;;;;;;4.10;1.20;;;0.50;99.90;;;;;;5016894;28;20041;-76
2024/01/16 00:46:15;;;;;;;1.43;0.70;;;0.50;99.90;;;;;;5005753;28;20046;-76
2024/01/16 00:48:42;;;;;;;2.70;0.70;;;0.50;99.90;;;;;;5015201;28;20068;-77
2024/01/16 00:51:09;;;;;;;4.93;0.80;;;0.50;99.90;;;;;;5033336;28;20052;-76
2024/01/16 00:53:40;;;;;;;4.40;1.00;;;0.60;99.90;;;;;;5016463;28;20079;-76
2024/01/16 00:56:07;;;;;;;4.00;0.68;;;0.60;99.90;;;;;;5026648;28;20045;-77
2024/01/16 00:58:35;;;;;;;3.60;1.00;;;0.60;99.90;;;;;;5022744;28;20061;-78
2024/01/16 01:01:02;;;;;;;3.43;0.70;;;0.60;99.90;;;;;;5013962;28;20042;-77
2024/01/16 01:03:29;;;;;;;3.77;0.50;;;0.70;99.90;;;;;;5025282;28;20041;-77
2024/01/16 01:05:57;;;;;;;3.27;0.70;;;0.70;99.90;;;;;;4999540;28;20042;-77
2024/01/16 01:08:24;;;;;;;5.60;0.70;;;0.70;99.90;;;;;;5008979;28;20447;-77
2024/01/16 01:10:51;;;;;;;2.93;0.63;;;0.80;99.90;;;;;;4997197;28;20045;-77
2024/01/16 01:13:18;;;;;;;7.23;0.90;;;0.80;99.90;;;;;;5007408;28;20041;-77
2024/01/16 01:15:45;;;;;;;4.70;0.93;;;0.80;99.90;;;;;;5000654;28;20041;-77
2024/01/16 01:18:12;;;;;;;3.33;0.60;;;0.80;99.90;;;;;;5033973;28;20041;-77
2024/01/16 01:20:40;;;;;;;4.27;0.67;;;0.80;99.90;;;;;;5006769;28;20618;-77
2024/01/16 01:23:07;;;;;;;4.03;0.70;;;0.80;99.90;;;;;;5003074;28;20041;-77
2024/01/16 01:25:34;;;;;;;6.30;1.03;;;0.70;99.90;;;;;;5030094;28;20099;-77
2024/01/16 01:28:01;;;;;;;2.33;0.80;;;0.70;99.90;;;;;;5031038;28;20047;-77
2024/01/16 01:30:28;;;;;;;9.50;0.80;;;0.70;99.90;;;;;;5013027;28;20410;-77
2024/01/16 01:32:55;;;;;;;7.03;1.60;;;0.60;99.90;;;;;;4994130;28;20059;-77
2024/01/16 01:35:22;;;;;;;4.53;0.70;;;0.50;99.90;;;;;;5012920;28;20056;-77
2024/01/16 01:37:49;;;;;;;2.97;0.70;;;0.50;99.90;;;;;;5024419;28;20060;-77
2024/01/16 01:40:16;;;;;;;4.23;1.27;;;0.50;99.90;;;;;;5001911;28;20405;-81
2024/01/16 01:42:44;;;;;;;3.60;0.60;;;0.50;99.90;;;;;;5032406;28;20420;-77
2024/01/16 01:45:11;;;;;;;1.93;0.50;;;0.40;99.90;;;;;;5023784;28;20497;-77
2024/01/16 01:47:42;;;;;;;3.77;1.30;;;0.50;99.90;;;;;;5002355;28;20497;-76
2024/01/16 01:50:10;;;;;;;3.87;0.70;;;0.40;99.90;;;;;;5029627;28;20076;-77
2024/01/16 01:52:40;;;;;;;2.43;0.70;;;0.40;99.90;;;;;;5032370;28;20046;-77
2024/01/16 01:55:13;;;;;;;2.90;0.60;;;0.40;99.90;;;;;;5032187;28;20087;-76
2024/01/16 01:57:42;;;;;;;3.83;0.80;;;0.40;99.90;;;;;;5031979;28;20041;-76
2024/01/16 02:00:11;;;;;;;4.60;1.30;;;0.40;99.90;;;;;;5015584;28;20091;-77
2024/01/16 02:02:42;;;;;;;7.07;1.00;;;0.30;99.90;;;;;;5015929;28;20047;-78
2024/01/16 02:05:10;;;;;;;4.27;0.80;;;0.30;99.90;;;;;;5015996;28;20037;-77
2024/01/16 02:07:38;;;;;;;3.67;0.90;;;0.30;99.90;;;;;;4999576;28;20041;-77
2024/01/16 02:10:08;;;;;;;3.13;0.93;;;0.30;99.90;;;;;;5031844;28;20053;-77
2024/01/16 02:12:35;;;;;;;3.83;1.23;;;0.30;99.90;;;;;;5032141;28;20101;-77
2024/01/16 02:15:03;;;;;;;5.33;2.17;;;0.30;99.90;;;;;;5015626;28;20045;-77
2024/01/16 02:17:30;;;;;;;3.37;0.80;;;0.20;99.90;;;;;;5018118;28;20045;-76
2024/01/16 02:19:57;;;;;;;3.67;0.80;;;0.30;99.90;;;;;;5012241;28;20037;-76
2024/01/16 02:22:27;;;;;;;2.10;0.60;;;0.20;99.90;;;;;;5025415;28;20049;-76
2024/01/16 02:24:54;;;;;;;2.23;0.53;;;0.30;99.90;;;;;;5007584;28;20064;-76
2024/01/16 02:27:21;;;;;;;1.90;0.50;;;0.30;99.90;;;;;;5015911;28;20046;-76
2024/01/16 02:29:48;;;;;;;2.07;0.50;;;0.30;99.90;;;;;;4999039;28;20064;-76
2024/01/16 02:32:16;;;;;;;2.73;0.53;;;0.30;99.90;;;;;;4998995;28;20049;-77
2024/01/16 02:34:43;;;;;;;2.20;0.50;;;0.40;99.90;;;;;;4998755;28;20045;-77
2024/01/16 02:37:10;;;;;;;6.07;1.00;;;0.40;99.90;;;;;;5031831;28;20067;-77
2024/01/16 02:39:37;;;;;;;4.10;1.10;;;0.50;99.90;;;;;;5002151;28;20048;-77
2024/01/16 02:42:04;;;;;;;3.73;1.07;;;0.50;99.90;;;;;;5011585;28;20049;-77
2024/01/16 02:44:31;;;;;;;6.67;2.17;;;0.50;99.90;;;;;;5007298;28;20050;-77
2024/01/16 02:46:58;;;;;;;9.13;2.80;;;0.60;99.90;;;;;;5031763;28;20046;-77
2024/01/16 02:49:25;;;;;;;7.40;3.57;;;0.60;99.90;;;;;;5033288;28;20049;-77
2024/01/16 02:51:54;;;;;;;11.40;3.60;;;0.60;99.90;;;;;;5036720;28;20042;-77
2024/01/16 02:54:22;;;;;;;10.33;4.10;;;0.70;99.90;;;;;;5016009;28;20096;-77
2024/01/16 02:56:49;;;;;;;11.17;4.83;;;0.70;99.90;;;;;;5031702;28;20037;-77
2024/01/16 02:59:16;;;;;;;12.10;5.37;;;0.70;99.90;;;;;;5003083;28;20096;-77
2024/01/16 03:01:43;;;;;;;9.37;4.57;;;0.70;99.90;;;;;;4999396;28;20046;-77
2024/01/16 03:04:11;;;;;;;12.60;5.30;;;0.70;99.90;;;;;;5002450;28;20072;-78
2024/01/16 03:06:38;;;;;;;10.80;4.57;;;0.70;99.90;;;;;;5035132;28;20045;-77
2024/01/16 03:09:06;;;;;;;12.37;5.47;;;0.70;99.90;;;;;;5033232;28;20073;-77
2024/01/16 03:11:33;;;;;;;15.27;6.63;;;0.70;99.90;;;;;;5035356;28;20069;-77
2024/01/16 03:14:00;;;;;;;13.97;5.87;;;0.80;99.90;;;;;;5035004;28;20045;-77
2024/01/16 03:16:28;;;;;;;10.83;5.20;;;0.80;99.90;;;;;;5015341;28;20491;-77
2024/01/16 03:18:55;;;;;;;11.30;5.67;;;0.80;99.90;;;;;;5031272;28;20037;-77
2024/01/16 03:21:22;;;;;;;12.67;5.90;;;0.80;99.90;;;;;;5015401;28;20050;-77
2024/01/16 03:23:50;;;;;;;11.53;4.47;;;0.80;99.90;;;;;;5030351;28;20049;-77
2024/01/16 03:26:17;;;;;;;11.93;5.40;;;0.80;99.90;;;;;;5008415;28;20490;-77
2024/01/16 03:28:45;;;;;;;11.73;5.03;;;0.90;99.90;;;;;;5020709;28;20069;-78
2024/01/16 03:31:14;;;;;;;8.73;4.00;;;0.80;99.90;;;;;;5018219;28;20065;-77
2024/01/16 03:33:42;;;;;;;9.23;4.50;;;0.90;99.90;;;;;;5025792;28;20095;-77
2024/01/16 03:36:11;;;;;;;9.60;4.37;;;0.90;99.90;;;;;;5034837;28;20056;-77
2024/01/16 03:38:38;;;;;;;12.17;5.33;;;0.90;99.90;;;;;;5034527;28;20037;-76
2024/01/16 03:41:10;;;;;;;9.93;4.70;;;0.90;99.90;;;;;;5035740;28;20045;-77
2024/01/16 03:43:38;;;;;;;6.90;3.83;;;0.90;99.90;;;;;;4988829;28;20552;-76
2024/01/16 03:46:11;;;;;;;8.97;4.47;;;0.90;99.90;;;;;;4995806;28;20457;-77
2024/01/16 03:48:39;;;;;;;9.80;4.90;;;0.90;99.90;;;;;;5024763;28;20046;-77
2024/01/16 03:51:09;;;;;;;13.33;5.63;;;0.90;99.90;;;;;;4999041;28;20045;-76
2024/01/16 03:53:36;;;;;;;9.20;4.20;;;0.90;99.90;;;;;;5032673;28;20575;-76
2024/01/16 03:56:03;;;;;;;8.90;4.77;;;0.90;99.90;;;;;;5018158;28;20049;-78
2024/01/16 03:58:30;;;;;;;13.37;5.77;;;0.90;99.90;;;;;;5001708;28;20038;-77
2024/01/16 04:00:57;;;;;;;13.60;6.07;;;0.90;99.90;;;;;;5000949;28;20041;-77
2024/01/16 04:03:24;;;;;;;11.07;5.57;;;0.90;99.90;;;;;;5033964;28;20053;-77
2024/01/16 04:05:51;;;;;;;11.23;5.60;;;0.90;99.90;;;;;;5034128;28;20046;-77
2024/01/16 04:08:18;;;;;;;11.33;4.93;;;0.90;99.90;;;;;;5035198;28;20045;-77
2024/01/16 04:10:45;;;;;;;12.17;5.57;;;0.90;99.90;;;;;;5017693;28;20053;-77
2024/01/16 04:13:12;;;;;;;12.80;5.50;;;0.90;99.90;;;;;;5034096;28;20115;-77
2024/01/16 04:15:39;;;;;;;11.90;4.67;;;0.90;99.90;;;;;;5017439;28;20038;-78
2024/01/16 04:18:06;;;;;;;11.03;4.43;;;0.90;99.90;;;;;;5017523;28;20095;-77
2024/01/16 04:20:34;;;;;;;9.80;4.37;;;0.90;99.90;;;;;;5033907;28;20037;-77
2024/01/16 04:23:01;;;;;;;10.00;3.77;;;1.00;99.90;;;;;;5017403;28;20124;-77
2024/01/16 04:25:28;;;;;;;6.40;3.30;;;1.00;99.90;;;;;;5017729;28;20124;-77
2024/01/16 04:27:55;;;;;;;8.00;2.70;;;1.00;99.90;;;;;;5017434;28;20049;-77
2024/01/16 04:30:23;;;;;;;9.63;3.47;;;1.00;99.90;;;;;;5026692;28;20049;-77
2024/01/16 04:32:50;;;;;;;5.67;2.90;;;1.00;99.90;;;;;;5010940;28;20068;-77
2024/01/16 04:35:17;;;;;;;4.90;2.67;;;1.00;99.90;;;;;;5033670;28;20048;-77
2024/01/16 04:37:44;;;;;;;8.83;3.53;;;1.00;99.90;;;;;;5033503;28;20053;-78
2024/01/16 04:40:11;;;;;;;6.93;2.87;;;1.00;99.90;;;;;;5017151;28;20041;-78
2024/01/16 04:42:38;;;;;;;4.47;2.00;;;1.00;99.90;;;;;;5013983;28;20061;-78
2024/01/16 04:45:06;;;;;;;5.33;2.10;;;1.00;99.90;;;;;;5029551;28;20409;-78
2024/01/16 04:47:33;;;;;;;4.40;1.60;;;1.00;99.90;;;;;;4994531;28;20050;-78
2024/01/16 04:50:00;;;;;;;5.03;1.97;;;1.00;99.90;;;;;;5028251;28;20067;-78
2024/01/16 04:52:27;;;;;;;3.60;1.80;;;1.00;99.90;;;;;;4993990;28;20045;-78
2024/01/16 04:54:54;;;;;;;4.20;1.50;;;1.00;99.90;;;;;;5027081;28;20041;-78
2024/01/16 04:57:21;;;;;;;3.90;1.60;;;1.00;99.90;;;;;;4992788;28;20053;-77
2024/01/16 04:59:48;;;;;;;3.17;1.33;;;1.10;99.90;;;;;;5005409;28;20050;-77
2024/01/16 05:02:17;;;;;;;6.37;1.60;;;1.10;99.90;;;;;;5014473;28;20100;-78
2024/01/16 05:04:44;;;;;;;3.50;1.27;;;1.00;99.90;;;;;;5013634;28;20046;-78
2024/01/16 05:07:11;;;;;;;5.63;1.87;;;1.10;99.90;;;;;;5032887;28;20046;-78
2024/01/16 05:09:38;;;;;;;4.37;1.93;;;1.00;99.90;;;;;;5016512;28;20490;-78
2024/01/16 05:12:08;;;;;;;7.43;2.00;;;1.10;99.90;;;;;;5032772;28;20041;-78
2024/01/16 05:14:35;;;;;;;5.90;1.97;;;1.10;99.90;;;;;;5016984;28;20049;-78
2024/01/16 05:17:03;;;;;;;7.53;2.67;;;1.10;99.90;;;;;;5032920;28;20049;-78
2024/01/16 05:19:30;;;;;;;5.87;2.30;;;1.10;99.90;;;;;;5013036;28;20187;-78
2024/01/16 05:21:57;;;;;;;6.03;2.80;;;1.10;99.90;;;;;;5008485;28;20060;-78
2024/01/16 05:24:24;;;;;;;5.67;3.07;;;1.10;99.90;;;;;;5005142;28;20046;-78
2024/01/16 05:26:51;;;;;;;11.57;3.33;;;1.10;99.90;;;;;;5022867;28;20048;-78
2024/01/16 05:29:18;;;;;;;10.53;4.23;;;1.00;99.90;;;;;;5012700;28;20050;-78
2024/01/16 05:31:45;;;;;;;8.60;4.50;;;1.10;99.90;;;;;;5031300;28;20053;-78
2024/01/16 05:34:13;;;;;;;8.30;4.70;;;1.10;99.90;;;;;;5022609;28;20430;-78
2024/01/16 05:36:40;;;;;;;10.73;5.23;;;1.10;99.90;;;;;;5029804;28;20132;-78
2024/01/16 05:39:08;;;;;;;10.53;4.77;;;1.10;99.90;;;;;;4983958;28;20037;-78
2024/01/16 05:41:35;;;;;;;14.13;5.13;;;1.10;99.90;;;;;;5032400;28;20045;-78
2024/01/16 05:44:05;;;;;;;9.17;4.10;;;1.10;99.90;;;;;;5033523;28;20474;-78
2024/01/16 05:46:33;;;;;;;9.23;3.90;;;1.10;99.90;;;;;;5016367;28;20406;-78
2024/01/16 05:49:00;;;;;;;7.47;3.53;;;1.00;99.90;;;;;;4999890;28;20044;-78
2024/01/16 05:51:29;;;;;;;6.60;3.23;;;1.00;99.90;;;;;;5032314;28;20112;-78
2024/01/16 05:53:56;;;;;;;5.77;3.30;;;1.10;99.90;;;;;;5011903;28;20052;-78
2024/01/16 05:56:23;;;;;;;9.33;4.30;;;1.00;99.90;;;;;;5023107;28;20061;-78
2024/01/16 05:58:51;;;;;;;6.47;2.80;;;1.00;99.90;;;;;;4999842;28;20136;-78
2024/01/16 06:01:19;;;;;;;10.80;3.93;;;1.00;99.90;;;;;;5015392;28;20041;-78
2024/01/16 06:03:48;;;;;;;6.00;1.77;;;1.00;99.90;;;;;;5018498;28;20033;-78
2024/01/16 06:06:16;;;;;;;5.17;2.00;;;1.00;99.90;;;;;;5013888;28;20096;-78
2024/01/16 06:08:43;;;;;;;4.90;1.43;;;1.00;99.90;;;;;;5012753;28;20042;-78
2024/01/16 06:11:11;;;;;;;10.27;2.33;;;1.00;99.90;;;;;;5012242;28;20042;-78
2024/01/16 06:13:40;;;;;;;4.03;1.80;;;1.10;99.90;;;;;;5031990;28;20045;-78
2024/01/16 06:16:08;;;;;;;4.83;1.77;;;1.00;99.90;;;;;;4999289;28;20417;-79
2024/01/16 06:18:35;;;;;;;5.20;1.53;;;1.00;99.90;;;;;;5015677;28;20400;-78
2024/01/16 06:21:03;;;;;;;4.87;1.53;;;1.10;99.90;;;;;;5032814;28;20050;-77
2024/01/16 06:23:31;;;;;;;5.97;1.83;;;1.10;99.90;;;;;;5024420;28;20077;-78
2024/01/16 06:25:59;;;;;;;4.10;1.53;;;1.10;99.90;;;;;;4995614;28;20038;-77
2024/01/16 06:28:27;;;;;;;3.97;1.43;;;1.10;99.90;;;;;;5010105;28;20050;-78
2024/01/16 06:30:54;;;;;;;8.67;1.33;;;1.10;99.90;;;;;;5024502;28;20156;-77
2024/01/16 06:33:21;;;;;;;5.63;1.90;;;1.10;99.90;;;;;;5001490;28;20042;-78
2024/01/16 06:35:48;;;;;;;7.17;1.73;;;1.10;99.90;;;;;;5011499;28;20140;-77
2024/01/16 06:38:20;;;;;;;5.82;1.50;;;1.10;99.90;;;;;;5012019;28;20168;-78
2024/01/16 06:40:47;;;;;;;10.07;2.17;;;1.10;99.90;;;;;;5007106;28;20042;-78
2024/01/16 06:43:15;;;;;;;6.17;1.80;;;1.10;99.90;;;;;;4965858;28;20042;-78
2024/01/16 06:45:44;;;;;;;6.43;1.87;;;1.10;99.90;;;;;;5024734;28;20042;-77
2024/01/16 06:48:11;;;;;;;4.97;2.20;;;1.10;99.90;;;;;;5020041;28;20474;-78
2024/01/16 06:50:38;;;;;;;6.73;1.90;;;1.10;99.90;;;;;;5008635;28;20497;-78
2024/01/16 06:53:06;;;;;;;7.30;3.30;;;1.10;99.90;;;;;;5031432;28;20080;-78
2024/01/16 06:55:33;;;;;;;6.10;2.10;;;1.10;99.90;;;;;;4998917;28;20049;-78
2024/01/16 06:58:00;;;;;;;6.50;2.10;;;1.10;99.90;;;;;;5031513;28;20436;-78
2024/01/16 07:00:27;;;;;;;8.17;2.03;;;1.10;99.90;;;;;;5014637;28;20042;-79
2024/01/16 07:02:54;;;;;;;5.63;1.80;;;1.10;99.90;;;;;;5031436;28;20042;-77
2024/01/16 07:05:22;;;;;;;7.40;1.90;;;1.10;99.90;;;;;;5032561;28;20041;-77
2024/01/16 07:07:49;;;;;;;5.32;1.75;;;1.10;99.90;;;;;;5015133;28;20037;-77
2024/01/16 07:10:19;;;;;;;5.03;1.93;;;1.10;99.90;;;;;;5031505;28;20049;-78
2024/01/16 07:12:47;;;;;;;7.77;2.13;;;1.10;99.90;;;;;;5012183;28;20053;-77
2024/01/16 07:15:14;;;;;;;7.77;2.23;;;1.10;99.90;;;;;;5008368;28;20425;-78
2024/01/16 07:17:41;;;;;;;9.80;2.50;;;1.10;99.90;;;;;;4985171;28;20406;-78
2024/01/16 07:20:09;;;;;;;9.40;2.60;;;1.10;99.90;;;;;;5031312;28;20053;-78
2024/01/16 07:22:39;;;;;;;6.53;3.40;;;1.10;99.90;;;;;;5014710;28;20084;-78
2024/01/16 07:25:07;;;;;;;6.30;2.13;;;1.10;99.90;;;;;;5031375;28;20410;-78
2024/01/16 07:27:35;;;;;;;8.10;2.60;;;1.10;99.90;;;;;;4991899;28;20416;-78
2024/01/16 07:30:05;;;;;;;6.90;2.67;;;1.10;99.90;;;;;;5013299;28;20046;-78
2024/01/16 07:32:33;;;;;;;7.67;2.50;;;1.10;99.90;;;;;;5031496;28;20040;-78
2024/01/16 07:35:02;;;;;;;7.80;2.63;;;1.10;99.90;;;;;;5031238;28;20046;-79
2024/01/16 07:37:30;;;;;;;5.37;2.70;;;1.10;99.90;;;;;;5014994;28;20049;-77
2024/01/16 07:39:57;;;;;;;7.20;2.70;;;1.10;99.90;;;;;;5030656;28;20034;-77
2024/01/16 07:42:24;;;;;;;6.37;2.70;;;1.20;99.90;;;;;;5035811;28;20111;-77
2024/01/16 07:44:51;;;;;;;8.73;2.60;;;1.10;99.90;;;;;;5035742;28;20055;-77
2024/01/16 07:47:18;;;;;;;8.33;3.63;;;1.20;99.90;;;;;;5034475;28;20030;-77
2024/01/16 07:49:46;;;;;;;9.63;3.47;;;1.20;99.90;;;;;;5024281;28;20048;-77
2024/01/16 07:52:13;;;;;;;6.63;3.67;;;1.20;99.90;;;;;;5017182;28;20041;-77
2024/01/16 07:54:40;;;;;;;8.43;4.20;;;1.20;99.90;;;;;;5017946;28;20052;-77
2024/01/16 07:57:07;;;;;;;12.50;4.03;;;1.20;99.90;;;;;;5034280;28;20053;-77
2024/01/16 07:59:34;;;;;;;11.27;5.20;;;1.20;99.90;;;;;;5014626;28;20057;-77
2024/01/16 08:02:01;;;;;;;10.33;4.27;;;1.20;99.90;;;;;;4997755;28;20045;-77
2024/01/16 08:04:28;;;;;;;7.10;3.43;;;1.20;99.90;;;;;;5026294;28;20050;-78
2024/01/16 08:06:55;;;;;;;10.33;5.10;;;1.20;99.90;;;;;;4994067;28;20038;-79
2024/01/16 08:09:22;;;;;;;11.00;4.93;;;1.20;99.90;;;;;;5001648;28;20049;-78
2024/01/16 08:11:49;;;;;;;9.57;3.80;;;1.20;99.90;;;;;;5014520;28;20042;-77
2024/01/16 08:14:16;;;;;;;8.90;4.57;;;1.30;99.90;;;;;;5001381;28;20044;-77
2024/01/16 08:16:43;;;;;;;8.93;5.17;;;1.30;99.90;;;;;;4990842;28;20124;-77
2024/01/16 08:19:10;;;;;;;11.03;5.73;;;1.20;99.90;;;;;;5030987;28;20099;-77
2024/01/16 08:21:37;;;;;;;18.80;6.60;;;1.30;99.90;;;;;;5014155;28;20061;-77
2024/01/16 08:24:04;;;;;;;11.47;6.63;;;1.30;99.90;;;;;;5023489;28;20034;-78
2024/01/16 08:26:31;;;;;;;12.63;7.47;;;1.20;99.90;;;;;;5011312;28;20406;-78
2024/01/16 08:28:58;;;;;;;15.83;8.07;;;1.20;99.90;;;;;;5033415;28;20133;-78
2024/01/16 08:31:25;;;;;;;13.33;7.30;;;1.20;99.90;;;;;;5012988;28;20057;-78
2024/01/16 08:33:55;;;;;;;16.17;8.27;;;1.20;99.90;;;;;;5015806;28;20046;-78
2024/01/16 08:36:23;;;;;;;17.77;8.33;;;1.20;99.90;;;;;;5009361;28;20120;-77
2024/01/16 08:38:50;;;;;;;15.60;9.57;;;1.20;99.90;;;;;;5028463;28;20041;-78
2024/01/16 08:41:17;;;;;;;19.33;9.57;;;1.20;99.90;;;;;;5033685;28;20041;-78
2024/01/16 08:43:44;;;;;;;17.70;10.10;;;1.20;99.90;;;;;;5033434;28;20456;-77
2024/01/16 08:46:11;;;;;;;16.60;9.40;;;1.20;99.90;;;;;;5034591;28;20132;-77
2024/01/16 08:48:40;;;;;;;19.97;9.40;;;1.20;99.90;;;;;;5016417;28;20136;-77
2024/01/16 08:51:11;;;;;;;15.40;9.77;;;1.20;99.90;;;;;;5013974;28;20486;-78
2024/01/16 08:53:38;;;;;;;14.30;8.37;;;1.20;99.90;;;;;;5030194;28;20072;-78
2024/01/16 08:56:08;;;;;;;15.93;9.30;;;1.20;99.90;;;;;;5017160;28;20288;-77
2024/01/16 08:58:37;;;;;;;14.77;9.20;;;1.20;99.90;;;;;;5034496;28;20049;-78
2024/01/16 09:01:05;;;;;;;13.80;8.17;;;1.20;99.90;;;;;;5033143;28;20545;-78
2024/01/16 09:03:36;;;;;;;12.50;8.20;;;1.20;99.90;;;;;;5013998;28;20041;-77
2024/01/16 09:06:03;;;;;;;14.30;7.90;;;1.10;99.90;;;;;;5027580;28;20132;-78
2024/01/16 09:08:31;;;;;;;15.53;8.30;;;1.10;99.90;;;;;;4997823;28;20470;-77
2024/01/16 09:10:59;;;;;;;12.33;7.50;;;1.10;99.90;;;;;;4995089;28;20049;-78
2024/01/16 09:13:26;;;;;;;16.53;7.57;;;1.10;99.90;;;;;;5008464;28;20512;-78
2024/01/16 09:15:53;;;;;;;14.97;8.20;;;1.10;99.90;;;;;;5016486;28;20049;-79
2024/01/16 09:18:20;;;;;;;12.77;7.67;;;1.10;99.90;;;;;;5032936;28;20046;-79
2024/01/16 09:20:48;;;;;;;10.20;6.80;;;1.10;99.90;;;;;;4988944;28;20052;-78
2024/01/16 09:23:15;;;;;;;13.47;6.97;;;1.10;99.90;;;;;;5000186;28;20076;-78
2024/01/16 09:25:42;;;;;;;13.53;6.67;;;1.10;99.90;;;;;;5032722;28;20438;-77
2024/01/16 09:28:14;;;;;;;13.60;6.75;;;1.10;99.90;;;;;;5033847;28;20474;-77
2024/01/16 09:30:42;;;;;;;11.00;5.80;;;1.10;99.90;;;;;;5032658;28;20144;-78
2024/01/16 09:33:10;;;;;;;10.53;6.50;;;1.20;99.90;;;;;;5018476;28;20046;-77
2024/01/16 09:35:37;;;;;;;10.93;5.97;;;1.20;99.90;;;;;;5016064;28;20501;-78
2024/01/16 09:38:05;;;;;;;10.97;6.00;;;1.20;99.90;;;;;;5015815;28;20045;-78
2024/01/16 09:40:32;;;;;;;13.07;6.07;;;1.30;99.90;;;;;;5016088;28;20132;-79
2024/01/16 09:42:59;;;;;;;10.83;5.97;;;1.30;99.90;;;;;;4995755;28;20088;-79
2024/01/16 09:45:29;;;;;;;14.57;6.10;;;1.30;99.90;;;;;;5018565;28;20041;-77
2024/01/16 09:47:56;;;;;;;11.07;5.73;;;1.30;99.90;;;;;;5012573;28;20526;-78
2024/01/16 09:50:23;;;;;;;13.30;6.23;;;1.30;99.90;;;;;;5010768;28;20050;-77
2024/01/16 09:52:51;;;;;;;11.30;6.30;;;1.30;99.90;;;;;;4996258;28;20052;-77
2024/01/16 09:55:17;;;;;;;11.23;5.60;;;1.20;99.90;;;;;;5012643;28;20050;-77
2024/01/16 09:57:46;;;;;;;9.83;5.37;;;1.20;99.90;;;;;;5022196;28;20041;-77
2024/01/16 10:00:13;;;;;;;11.10;5.27;;;1.10;99.90;;;;;;5012441;28;20042;-78
2024/01/16 10:02:41;;;;;;;10.57;5.37;;;1.10;99.90;;;;;;5015074;28;20046;-77
2024/01/16 10:05:11;;;;;;;10.87;4.87;;;1.10;99.90;;;;;;4999688;28;20057;-77
2024/01/16 10:07:39;;;;;;;8.63;4.17;;;1.10;99.90;;;;;;5021310;28;20044;-77
2024/01/16 10:10:10;;;;;;;8.00;4.60;;;1.10;99.90;;;;;;5032000;28;20041;-77
2024/01/16 10:12:39;;;;;;;7.53;3.80;;;1.20;99.90;;;;;;5033201;28;20033;-78
2024/01/16 10:15:07;;;;;;;9.67;5.33;;;1.20;99.90;;;;;;5031907;28;20045;-78
2024/01/16 10:17:39;;;;;;;8.30;4.30;;;1.30;99.90;;;;;;5015737;28;20034;-77
2024/01/16 10:20:13;;;;;;;7.13;3.88;;;1.40;99.90;;;;;;5015452;28;20053;-77
2024/01/16 10:22:41;;;;;;;18.30;4.23;;;1.40;99.90;;;;;;5031772;28;20498;-77
2024/01/16 10:25:10;;;;;;;10.00;4.43;;;1.30;99.90;;;;;;5015335;28;20413;-77
2024/01/16 10:27:39;;;;;;;9.77;4.50;;;1.30;99.90;;;;;;5015551;28;20132;-78
2024/01/16 10:30:07;;;;;;;9.53;3.77;;;1.40;99.90;;;;;;5010646;28;20038;-78
2024/01/16 10:32:37;;;;;;;8.37;4.07;;;1.40;99.90;;;;;;5029158;28;20142;-78
2024/01/16 10:35:12;;;;;;;9.27;3.87;;;1.50;99.90;;;;;;5004905;28;20402;-78
2024/01/16 10:37:44;;;;;;;7.37;3.83;;;1.50;99.90;;;;;;5022858;28;20045;-78
2024/01/16 10:40:15;;;;;;;7.27;4.00;;;1.50;99.90;;;;;;5032597;28;20045;-78
2024/01/16 10:42:43;;;;;;;11.27;4.30;;;1.50;99.90;;;;;;5031651;28;20045;-78
2024/01/16 10:45:17;;;;;;;7.37;3.37;;;1.50;99.90;;;;;;4998564;28;20076;-78
2024/01/16 10:47:46;;;;;;;8.87;3.20;;;1.50;99.90;;;;;;5021898;28;20556;-77
2024/01/16 10:50:14;;;;;;;9.57;3.97;;;1.50;99.90;;;;;;5001413;28;20487;-77
2024/01/16 10:52:50;;;;;;;10.03;3.53;;;1.50;99.90;;;;;;5020905;28;20040;-79
2024/01/16 10:55:22;;;;;;;6.23;3.50;;;1.50;99.90;;;;;;5017664;28;20041;-78
2024/01/16 10:57:52;;;;;;;7.00;3.45;;;1.50;99.90;;;;;;5013454;28;20041;-78
2024/01/16 11:00:21;;;;;;;8.90;3.67;;;1.60;99.90;;;;;;5001206;28;20052;-78
2024/01/16 11:03:00;;;;;;;10.35;4.07;;;1.50;99.90;;;;;;5015194;28;20128;-78
2024/01/16 11:05:31;;;;;;;8.30;3.40;;;1.50;99.90;;;;;;5031280;28;20509;-77
2024/01/16 11:08:01;;;;;;;6.17;3.23;;;1.40;99.90;;;;;;5031324;28;20099;-82
2024/01/16 11:10:28;;;;;;;7.35;3.92;;;1.50;99.90;;;;;;5007646;28;20152;-82
2024/01/16 11:12:59;;;;;;;9.23;3.70;;;1.50;99.90;;;;;;5016756;28;20045;-80
2024/01/16 11:15:31;;;;;;;7.70;3.23;;;1.60;99.90;;;;;;5018358;28;20052;-80
2024/01/16 11:18:01;;;;;;;8.85;3.58;;;1.70;99.90;;;;;;5028233;28;20046;-80
2024/01/16 11:20:30;;;;;;;8.27;3.33;;;1.70;99.90;;;;;;5034810;28;20127;-80
2024/01/16 11:23:17;;;;;;;9.23;3.77;;;1.70;99.90;;;;;;5024017;28;20814;-82
2024/01/16 11:25:44;;;;;;;7.00;3.60;;;1.80;99.90;;;;;;5034863;28;20041;-81
2024/01/16 11:28:13;;;;;;;8.33;3.43;;;1.80;99.90;;;;;;5018572;28;20045;-81
2024/01/16 11:30:42;;;;;;;6.10;3.20;;;1.80;99.90;;;;;;5002626;28;20573;-81
2024/01/16 11:33:32;;;;;;;7.55;3.47;;;1.80;99.90;;;;;;5034852;28;20132;-81
2024/01/16 11:36:00;;;;;;;9.33;3.60;;;1.80;99.90;;;;;;5025250;28;20045;-81
2024/01/16 11:38:32;;;;;;;8.13;3.40;;;1.70;99.90;;;;;;5002152;28;20057;-80
2024/01/16 11:40:59;;;;;;;8.18;3.13;;;1.70;99.90;;;;;;5035813;28;20045;-81
2024/01/16 11:43:32;;;;;;;8.43;3.10;;;1.70;99.90;;;;;;5017408;28;20057;-82
2024/01/16 11:46:07;;;;;;;7.60;3.60;;;1.70;99.90;;;;;;5034445;28;20041;-81
2024/01/16 11:48:35;;;;;;;8.57;2.80;;;1.70;99.90;;;;;;5018103;28;20046;-81
2024/01/16 11:51:23;;;;;;;6.43;2.80;;;1.70;99.90;;;;;;5018266;28;20045;-81
2024/01/16 11:53:50;;;;;;;5.45;2.40;;;1.70;99.90;;;;;;5033166;28;20231;-80
2024/01/16 11:56:20;;;;;;;7.88;3.05;;;1.70;99.90;;;;;;5017885;28;20052;-80
2024/01/16 11:59:37;;;;;;;6.68;2.63;;;1.70;99.90;;;;;;5024372;28;20099;-81
2024/01/16 12:02:12;;;;;;;6.72;3.03;;;1.70;99.90;;;;;;5027738;28;20338;-80
2024/01/16 12:04:39;;;;;;;4.77;2.50;;;1.70;99.90;;;;;;5027618;28;20349;-78
2024/01/16 12:07:07;;;;;;;6.15;2.97;;;1.80;99.90;;;;;;5029677;28;20111;-78
2024/01/16 12:09:34;;;;;;;8.02;3.72;;;1.80;99.90;;;;;;5034058;28;20045;-78
2024/01/16 12:12:02;;;;;;;6.32;3.20;;;1.90;99.90;;;;;;4996075;28;20045;-78
2024/01/16 12:14:30;;;;;;;7.17;3.33;;;1.90;99.90;;;;;;4998096;28;20073;-79
2024/01/16 12:17:13;;;;;;;6.87;3.13;;;1.90;99.90;;;;;;5007445;28;20065;-83
2024/01/16 12:19:42;;;;;;;5.63;2.42;;;2.00;99.90;;;;;;4989252;28;20048;-84
2024/01/16 12:22:13;;;;;;;6.45;3.15;;;2.00;99.90;;;;;;5000789;28;20496;-83
2024/01/16 12:24:41;;;;;;;8.43;3.03;;;2.00;99.90;;;;;;5004264;28;20048;-83
2024/01/16 12:27:11;;;;;;;5.63;3.23;;;2.10;99.90;;;;;;5006514;28;20078;-84
2024/01/16 12:29:42;;;;;;;5.03;3.05;;;2.10;99.90;;;;;;5011630;28;20049;-84
2024/01/16 12:32:16;;;;;;;8.03;3.77;;;2.10;99.90;;;;;;5014362;28;20116;-84
2024/01/16 12:34:45;;;;;;;9.32;3.80;;;2.20;99.90;;;;;;5013029;28;20049;-81
2024/01/16 12:37:13;;;;;;;7.10;3.03;;;2.40;99.90;;;;;;5017300;28;20068;-84
2024/01/16 12:39:41;;;;;;;7.07;3.03;;;2.50;99.90;;;;;;5001424;28;20057;-84
2024/01/16 12:42:10;;;;;;;6.27;3.10;;;2.50;99.90;;;;;;5016709;28;20042;-85
2024/01/16 12:44:37;;;;;;;7.03;2.75;;;2.70;99.90;;;;;;5033443;28;20069;-83
2024/01/16 12:47:05;;;;;;;7.60;3.50;;;2.70;99.90;;;;;;5017551;28;20458;-84
2024/01/16 12:49:32;;;;;;;6.68;3.50;;;2.80;99.90;;;;;;5033457;28;20476;-83
2024/01/16 12:52:20;;;;;;;8.07;3.83;;;2.70;99.90;;;;;;4995596;28;20049;-82
2024/01/16 12:54:49;;;;;;;8.10;3.90;;;2.70;99.90;;;;;;5033200;28;20513;-81
2024/01/16 12:57:19;;;;;;;7.60;3.20;;;2.60;99.90;;;;;;5033237;28;20053;-82
2024/01/16 12:59:48;;;;;;;5.82;3.25;;;2.60;99.90;;;;;;5033413;28;20080;-84
2024/01/16 13:02:25;;;;;;;5.72;2.90;;;2.50;99.90;;;;;;5016936;28;20091;-83